Time;durP1;ratioP1;P1;durP2;ratioP2;P2;SDS_P1;SDS_P2;PMS_P1;PMS_P2;Temp;Humidity;BMP_temperature;BMP_pressure;BME280_temperature;BME280_humidity;BME280_pressure;Samples;Min_cycle;Max_cycle;Signal;HPM_P1;HPM_P2
2022/03/05 00:02:10;;;;;;;85.57;54.10;;;;;;;22.62;42.71;102862.09;5034007;28;20031;-62
2022/03/05 00:04:35;;;;;;;84.88;53.97;;;;;;;22.69;42.06;102870.63;5033799;28;20021;-63
2022/03/05 00:07:01;;;;;;;92.75;57.78;;;;;;;22.68;42.05;102864.25;5034017;28;20045;-62
2022/03/05 00:09:26;;;;;;;88.25;54.15;;;;;;;22.64;42.15;102849.09;5033751;28;20469;-63
2022/03/05 00:11:51;;;;;;;84.07;52.83;;;;;;;22.63;41.50;102849.25;5033566;28;20076;-63
2022/03/05 00:14:17;;;;;;;90.53;53.85;;;;;;;22.68;42.36;102852.44;5033633;28;20021;-62
2022/03/05 00:16:42;;;;;;;88.05;55.78;;;;;;;23.13;43.16;102860.69;5033095;28;20049;-63
2022/03/05 00:19:07;;;;;;;94.03;58.35;;;;;;;23.35;45.05;102845.69;5033692;28;20056;-62
2022/03/05 00:21:33;;;;;;;101.53;60.60;;;;;;;23.44;46.04;102850.22;5033580;28;20063;-63
2022/03/05 00:23:58;;;;;;;102.68;63.15;;;;;;;23.51;47.18;102854.03;5033780;28;20108;-63
2022/03/05 00:26:25;;;;;;;125.82;72.18;;;;;;;23.41;50.58;102845.03;5033416;28;20030;-62
2022/03/05 00:28:50;;;;;;;144.30;83.07;;;;;;;23.36;51.40;102842.78;5033658;28;20021;-63
2022/03/05 00:31:16;;;;;;;134.05;78.72;;;;;;;23.34;51.94;102843.94;5033434;28;20029;-62
2022/03/05 00:33:41;;;;;;;155.65;85.90;;;;;;;23.35;52.64;102840.19;5033590;28;20028;-63
2022/03/05 00:36:06;;;;;;;159.82;92.43;;;;;;;23.37;53.17;102838.16;5033360;28;20032;-62
2022/03/05 00:38:32;;;;;;;160.48;91.00;;;;;;;23.40;53.26;102832.34;5033510;28;20022;-63
2022/03/05 00:40:57;;;;;;;177.50;100.40;;;;;;;23.41;52.45;102839.56;5033476;28;20025;-63
2022/03/05 00:43:22;;;;;;;160.77;93.15;;;;;;;23.43;52.81;102840.25;5032809;28;20030;-62
2022/03/05 00:45:48;;;;;;;177.07;98.00;;;;;;;23.45;52.36;102829.97;5033621;28;20028;-63
2022/03/05 00:48:13;;;;;;;175.60;101.38;;;;;;;23.46;52.63;102831.69;5033117;28;20029;-62
2022/03/05 00:50:39;;;;;;;173.45;98.47;;;;;;;23.49;52.85;102842.34;5033552;28;20112;-62
2022/03/05 00:53:05;;;;;;;172.30;100.45;;;;;;;23.54;52.11;102826.28;5033162;28;20048;-63
2022/03/05 00:55:30;;;;;;;180.85;106.28;;;;;;;23.55;52.22;102838.13;5032981;28;20087;-62
2022/03/05 00:57:55;;;;;;;173.48;101.85;;;;;;;23.61;51.96;102834.78;5031877;28;20034;-63
2022/03/05 01:00:20;;;;;;;168.48;95.57;;;;;;;23.62;51.36;102833.75;5031654;28;20110;-62
2022/03/05 01:02:46;;;;;;;168.48;97.68;;;;;;;23.61;51.07;102832.91;5033072;28;20030;-63
2022/03/05 01:05:11;;;;;;;158.45;96.43;;;;;;;23.66;50.55;102833.28;5032598;28;20048;-63
2022/03/05 01:07:37;;;;;;;183.00;107.80;;;;;;;23.62;50.16;102831.00;5032915;28;20035;-63
2022/03/05 01:10:04;;;;;;;172.23;99.78;;;;;;;23.66;50.32;102827.78;5032898;28;20025;-63
2022/03/05 01:12:29;;;;;;;157.85;94.97;;;;;;;23.68;50.39;102830.38;5032439;28;20029;-63
2022/03/05 01:14:55;;;;;;;171.25;103.45;;;;;;;23.68;49.45;102828.50;5032841;28;20033;-63
2022/03/05 01:17:20;;;;;;;159.57;95.82;;;;;;;23.66;49.66;102827.78;5033322;28;20032;-63
2022/03/05 01:19:46;;;;;;;173.55;101.78;;;;;;;23.69;49.02;102822.00;5033400;28;20029;-63
2022/03/05 01:22:11;;;;;;;154.27;94.93;;;;;;;23.74;48.80;102823.41;5032608;28;20041;-63
2022/03/05 01:24:37;;;;;;;178.93;106.45;;;;;;;23.72;49.00;102819.94;5032621;28;20025;-63
2022/03/05 01:27:03;;;;;;;158.85;96.05;;;;;;;23.72;48.59;102814.47;5032733;28;20040;-63
2022/03/05 01:29:28;;;;;;;172.70;104.88;;;;;;;23.73;48.73;102817.03;5031578;28;20022;-63
2022/03/05 01:31:53;;;;;;;159.20;95.47;;;;;;;23.72;48.56;102809.81;5032658;28;20025;-63
2022/03/05 01:34:19;;;;;;;161.70;98.22;;;;;;;23.76;48.76;102807.59;5032853;28;20029;-62
2022/03/05 01:36:45;;;;;;;161.65;97.45;;;;;;;23.75;47.58;102809.50;5032559;28;20053;-63
2022/03/05 01:39:10;;;;;;;178.32;105.63;;;;;;;23.77;47.96;102820.31;5032345;28;20079;-63
2022/03/05 01:41:37;;;;;;;163.93;98.45;;;;;;;23.81;47.63;102813.47;5032512;28;20238;-63
2022/03/05 01:44:03;;;;;;;172.95;101.63;;;;;;;23.78;47.84;102824.78;5032537;28;20363;-63
2022/03/05 01:46:35;;;;;;;173.40;103.57;;;;;;;23.78;47.81;102816.53;5032568;28;20053;-63
2022/03/05 01:49:05;;;;;;;175.70;105.68;;;;;;;23.73;47.37;102814.28;5032711;28;20022;-63
2022/03/05 01:51:30;;;;;;;174.52;105.28;;;;;;;23.77;47.79;102812.94;5032160;28;20030;-63
2022/03/05 01:53:56;;;;;;;157.85;95.75;;;;;;;23.81;46.94;102807.97;5032786;28;20032;-63
2022/03/05 01:56:24;;;;;;;153.65;94.32;;;;;;;23.83;47.06;102800.44;5031857;28;20021;-63
2022/03/05 01:58:49;;;;;;;155.13;95.65;;;;;;;23.80;47.60;102806.25;5032346;28;20022;-63
2022/03/05 02:01:14;;;;;;;154.18;96.93;;;;;;;23.81;47.08;102799.75;5033571;28;20025;-61
2022/03/05 02:03:40;;;;;;;158.18;97.97;;;;;;;23.83;46.75;102797.69;5033251;28;20044;-63
2022/03/05 02:06:05;;;;;;;158.38;96.35;;;;;;;23.78;47.08;102800.06;5032506;28;20053;-63
2022/03/05 02:08:31;;;;;;;170.60;103.60;;;;;;;23.80;47.29;102801.63;5031989;28;20017;-63
2022/03/05 02:10:56;;;;;;;164.23;98.43;;;;;;;23.90;47.14;102807.88;5032314;28;20025;-62
2022/03/05 02:13:21;;;;;;;172.90;103.68;;;;;;;23.85;46.64;102798.38;5030824;28;20036;-63
2022/03/05 02:15:53;;;;;;;160.07;97.28;;;;;;;23.85;46.74;102790.16;5031682;28;20040;-63
2022/03/05 02:18:18;;;;;;;162.25;96.57;;;;;;;23.86;46.89;102789.16;5031800;28;20073;-63
2022/03/05 02:20:43;;;;;;;161.07;100.90;;;;;;;23.89;46.94;102789.69;5032245;28;20095;-63
2022/03/05 02:23:09;;;;;;;168.50;102.10;;;;;;;23.89;46.41;102783.34;5032015;28;20500;-63
2022/03/05 02:25:34;;;;;;;174.15;103.05;;;;;;;23.92;47.04;102783.00;5031985;28;20059;-63
2022/03/05 02:28:00;;;;;;;161.10;98.70;;;;;;;23.91;46.48;102786.78;5032021;28;20022;-62
2022/03/05 02:30:25;;;;;;;169.90;100.00;;;;;;;23.93;46.65;102776.47;5031895;28;20171;-63
2022/03/05 02:32:51;;;;;;;188.32;109.93;;;;;;;23.91;46.69;102775.78;5030823;28;20120;-63
2022/03/05 02:35:16;;;;;;;168.93;100.13;;;;;;;23.91;46.69;102782.16;5032076;28;20033;-63
2022/03/05 02:37:41;;;;;;;166.23;100.38;;;;;;;23.88;46.52;102782.47;5032320;28;20423;-63
2022/03/05 02:40:07;;;;;;;158.35;100.25;;;;;;;23.93;46.57;102784.72;5032693;28;20518;-63
2022/03/05 02:42:32;;;;;;;177.20;105.88;;;;;;;23.93;46.16;102771.00;5036594;28;20036;-63
2022/03/05 02:44:57;;;;;;;162.80;100.38;;;;;;;23.91;45.93;102771.16;5037286;28;20108;-62
2022/03/05 02:47:23;;;;;;;168.93;99.68;;;;;;;23.94;46.43;102769.97;5034030;28;20032;-63
2022/03/05 02:49:48;;;;;;;162.65;97.85;;;;;;;23.88;46.01;102774.22;5035433;28;20490;-62
2022/03/05 02:52:13;;;;;;;175.80;104.25;;;;;;;23.91;46.25;102775.78;5035296;28;20030;-63
2022/03/05 02:54:39;;;;;;;165.05;100.00;;;;;;;24.00;46.27;102774.78;5035366;28;20049;-62
2022/03/05 02:57:04;;;;;;;183.25;106.82;;;;;;;23.92;45.87;102777.50;5034191;28;20038;-63
2022/03/05 02:59:29;;;;;;;158.93;96.80;;;;;;;23.93;46.36;102773.72;5034852;28;20029;-63
2022/03/05 03:01:56;;;;;;;165.23;102.28;;;;;;;23.91;46.43;102770.28;5035282;28;20460;-63
2022/03/05 03:04:21;;;;;;;167.30;103.47;;;;;;;23.92;45.83;102766.53;5034898;28;20025;-63
2022/03/05 03:06:46;;;;;;;170.40;102.05;;;;;;;23.96;45.74;102765.16;5033800;28;20048;-63
2022/03/05 03:09:12;;;;;;;171.55;103.57;;;;;;;23.92;46.34;102767.38;5035087;28;20022;-62
2022/03/05 03:11:37;;;;;;;160.38;98.93;;;;;;;23.93;46.59;102768.25;5034523;28;20091;-63
2022/03/05 03:14:02;;;;;;;162.90;99.78;;;;;;;23.98;45.60;102755.72;5035147;28;20029;-63
2022/03/05 03:16:29;;;;;;;174.00;104.45;;;;;;;23.95;46.56;102760.69;5034582;28;20037;-63
2022/03/05 03:18:54;;;;;;;166.52;100.50;;;;;;;23.95;46.17;102763.44;5035009;28;20159;-65
2022/03/05 03:21:20;;;;;;;159.60;96.57;;;;;;;23.94;46.00;102756.22;5034736;28;20488;-63
2022/03/05 03:23:45;;;;;;;161.15;98.60;;;;;;;23.90;46.54;102763.06;5036290;28;20141;-63
2022/03/05 03:26:10;;;;;;;165.73;98.30;;;;;;;23.96;45.25;102762.41;5034658;28;20033;-63
2022/03/05 03:28:36;;;;;;;160.07;98.00;;;;;;;23.95;45.91;102767.06;5034980;28;20067;-63
2022/03/05 03:31:01;;;;;;;159.80;97.28;;;;;;;23.93;46.16;102760.00;5034818;28;20021;-63
2022/03/05 03:33:26;;;;;;;160.90;98.00;;;;;;;23.99;45.84;102762.94;5034486;28;20025;-63
2022/03/05 03:35:52;;;;;;;176.43;104.18;;;;;;;24.00;46.24;102761.06;5034698;28;20024;-62
2022/03/05 03:38:17;;;;;;;172.98;105.00;;;;;;;23.98;45.48;102760.38;5034285;28;20037;-62
2022/03/05 03:40:42;;;;;;;162.48;98.55;;;;;;;23.93;45.31;102758.13;5034733;28;20049;-63
2022/03/05 03:43:08;;;;;;;165.30;104.18;;;;;;;23.98;46.16;102765.84;5034037;28;20144;-63
2022/03/05 03:45:33;;;;;;;169.68;103.40;;;;;;;23.97;46.09;102758.63;5034367;28;20034;-63
2022/03/05 03:47:59;;;;;;;166.82;99.55;;;;;;;23.97;45.90;102759.50;5034396;28;20033;-63
2022/03/05 03:50:24;;;;;;;172.90;103.10;;;;;;;23.94;45.84;102758.97;5034191;28;20032;-63
2022/03/05 03:52:50;;;;;;;177.07;103.88;;;;;;;23.94;45.95;102759.84;5033387;28;20479;-63
2022/03/05 03:55:19;;;;;;;155.95;98.53;;;;;;;23.94;45.23;102764.47;5034015;28;20033;-63
2022/03/05 03:57:44;;;;;;;162.77;98.18;;;;;;;24.02;45.55;102761.78;5034300;28;20021;-62
2022/03/05 04:00:13;;;;;;;162.18;98.65;;;;;;;24.01;45.58;102765.53;5035514;28;20040;-63
2022/03/05 04:02:39;;;;;;;153.90;95.43;;;;;;;23.95;45.38;102757.94;5034633;28;20026;-64
2022/03/05 04:05:05;;;;;;;161.38;98.35;;;;;;;24.02;45.31;102761.78;5033894;28;20049;-63
2022/03/05 04:10:14;;;;;;;162.77;100.13;;;;;;;24.04;45.84;102758.88;5034073;28;20033;-63
2022/03/05 04:12:39;;;;;;;166.25;100.68;;;;;;;24.02;45.18;102764.53;5033666;28;20033;-63
2022/03/05 04:15:05;;;;;;;168.52;102.03;;;;;;;24.00;45.66;102758.31;5033879;28;20025;-63
2022/03/05 04:17:31;;;;;;;153.90;94.93;;;;;;;23.98;45.37;102763.13;5033975;28;20032;-63
2022/03/05 04:19:56;;;;;;;160.80;96.93;;;;;;;23.94;45.82;102761.72;5033759;28;20018;-63
2022/03/05 04:22:22;;;;;;;179.65;105.97;;;;;;;24.09;45.38;102768.34;5033558;28;20032;-63
2022/03/05 04:24:47;;;;;;;161.27;98.90;;;;;;;24.05;45.39;102766.09;5033652;28;20128;-63
2022/03/05 04:27:13;;;;;;;164.15;102.32;;;;;;;23.96;45.53;102756.91;5033493;28;20029;-63
2022/03/05 04:29:38;;;;;;;173.85;103.90;;;;;;;24.02;45.67;102750.78;5033551;28;20346;-64
2022/03/05 04:32:04;;;;;;;166.27;100.60;;;;;;;24.03;44.98;102751.66;5033644;28;20025;-63
2022/03/05 04:34:30;;;;;;;159.20;99.13;;;;;;;24.05;45.39;102749.59;5033587;28;20036;-63
2022/03/05 04:36:55;;;;;;;166.10;101.45;;;;;;;24.04;46.01;102751.50;5033533;28;20037;-64
2022/03/05 04:39:21;;;;;;;156.40;97.05;;;;;;;24.04;45.58;102747.88;5033195;28;20021;-63
2022/03/05 04:41:46;;;;;;;165.52;101.82;;;;;;;24.05;45.44;102744.97;5033566;28;20049;-63
2022/03/05 04:44:11;;;;;;;163.73;99.43;;;;;;;23.99;45.68;102751.09;5034433;28;20032;-63
2022/03/05 04:46:37;;;;;;;172.32;106.38;;;;;;;23.99;44.91;102745.59;5033256;28;20056;-63
2022/03/05 04:49:03;;;;;;;169.32;103.88;;;;;;;24.02;44.84;102734.31;5033367;28;20022;-62
2022/03/05 04:51:28;;;;;;;157.43;98.10;;;;;;;24.01;45.21;102736.16;5033040;28;20430;-63
2022/03/05 04:53:53;;;;;;;160.23;97.47;;;;;;;24.00;46.14;102741.81;5033568;28;20021;-63
2022/03/05 04:56:19;;;;;;;161.98;98.85;;;;;;;24.05;45.04;102738.63;5032902;28;20032;-63
2022/03/05 04:58:44;;;;;;;167.80;100.55;;;;;;;24.05;45.16;102744.97;5033154;28;20047;-63
2022/03/05 05:01:10;;;;;;;167.00;101.18;;;;;;;23.99;45.52;102740.09;5033230;28;20029;-63
2022/03/05 05:03:35;;;;;;;165.40;98.55;;;;;;;24.25;44.58;102745.56;5033012;28;20033;-63
2022/03/05 05:06:00;;;;;;;161.02;99.60;;;;;;;24.42;44.72;102741.91;5033088;28;20053;-62
2022/03/05 05:08:26;;;;;;;158.40;99.45;;;;;;;24.50;44.83;102738.28;5032978;28;20049;-64
2022/03/05 05:10:52;;;;;;;154.60;96.47;;;;;;;24.47;44.29;102738.63;5032759;28;20021;-63
2022/03/05 05:13:17;;;;;;;151.93;94.38;;;;;;;24.56;44.42;102733.00;5032576;28;20033;-63
2022/03/05 05:15:42;;;;;;;154.48;94.95;;;;;;;24.61;44.12;102735.25;5032930;28;20028;-64
2022/03/05 05:18:08;;;;;;;150.27;96.78;;;;;;;24.64;43.18;102729.41;5032738;28;20025;-63
2022/03/05 05:20:33;;;;;;;150.10;90.50;;;;;;;24.67;43.41;102734.56;5034015;28;20037;-63
2022/03/05 05:22:58;;;;;;;137.40;88.78;;;;;;;24.66;43.57;102738.34;5033340;28;20027;-64
2022/03/05 05:25:23;;;;;;;133.10;85.97;;;;;;;24.68;42.82;102732.66;5032452;28;20021;-63
2022/03/05 05:27:49;;;;;;;132.90;85.55;;;;;;;24.70;43.30;102734.25;5032722;28;20423;-64
2022/03/05 05:30:14;;;;;;;137.65;87.72;;;;;;;24.72;43.12;102731.31;5032417;28;20025;-63
2022/03/05 05:32:40;;;;;;;133.18;83.60;;;;;;;24.76;43.00;102728.06;5032930;28;20021;-63
2022/03/05 05:35:07;;;;;;;128.18;83.75;;;;;;;24.82;43.15;102737.53;5032598;28;20112;-62
2022/03/05 05:37:32;;;;;;;130.18;83.70;;;;;;;24.79;42.80;102732.34;5032584;28;20021;-63
2022/03/05 05:39:58;;;;;;;127.60;82.85;;;;;;;24.78;43.00;102731.50;5032543;28;20028;-64
2022/03/05 05:42:23;;;;;;;121.35;77.30;;;;;;;24.80;42.15;102734.94;5032015;28;20040;-63
2022/03/05 05:44:49;;;;;;;132.88;84.57;;;;;;;24.84;42.79;102741.81;5032535;28;20044;-63
2022/03/05 05:47:14;;;;;;;120.13;76.68;;;;;;;24.77;41.82;102739.94;5032294;28;20029;-63
2022/03/05 05:49:40;;;;;;;123.93;78.13;;;;;;;24.86;43.01;102747.19;5032517;28;20021;-63
2022/03/05 05:52:05;;;;;;;129.00;80.97;;;;;;;24.84;41.43;102736.31;5032408;28;20021;-64
2022/03/05 05:54:31;;;;;;;126.43;81.28;;;;;;;24.93;41.83;102744.59;5032561;28;20022;-64
2022/03/05 05:56:56;;;;;;;120.03;76.22;;;;;;;24.89;41.78;102733.94;5032427;28;20025;-63
2022/03/05 05:59:22;;;;;;;123.80;77.38;;;;;;;24.87;41.92;102730.50;5032175;28;20033;-63
2022/03/05 06:01:47;;;;;;;120.68;74.57;;;;;;;24.88;42.25;102734.13;5033636;28;20061;-63
2022/03/05 06:04:12;;;;;;;124.93;79.07;;;;;;;24.90;41.78;102734.81;5032158;28;20021;-63
2022/03/05 06:06:38;;;;;;;119.30;77.25;;;;;;;24.91;41.38;102733.78;5032127;28;20049;-64
2022/03/05 06:09:03;;;;;;;119.72;74.88;;;;;;;24.95;42.07;102726.03;5032515;28;20120;-62
2022/03/05 06:11:29;;;;;;;121.15;77.38;;;;;;;24.93;41.58;102728.09;5031939;28;20040;-63
2022/03/05 06:13:55;;;;;;;120.05;75.10;;;;;;;24.86;41.79;102737.03;5032309;28;20029;-64
2022/03/05 06:16:20;;;;;;;115.57;75.35;;;;;;;24.94;42.28;102718.81;5035113;28;20032;-63
2022/03/05 06:18:46;;;;;;;118.85;77.47;;;;;;;24.91;41.42;102728.25;5036040;28;20021;-64
2022/03/05 06:21:11;;;;;;;120.25;77.68;;;;;;;24.93;41.64;102731.69;5036193;28;20040;-63
2022/03/05 06:23:37;;;;;;;114.57;76.90;;;;;;;24.94;41.02;102730.66;5035939;28;20040;-63
2022/03/05 06:26:04;;;;;;;121.32;75.70;;;;;;;24.97;42.07;102723.97;5036009;28;20052;-63
2022/03/05 06:28:29;;;;;;;113.63;72.43;;;;;;;24.97;41.83;102712.94;5035750;28;20034;-63
2022/03/05 06:30:55;;;;;;;115.40;73.07;;;;;;;24.91;40.97;102720.00;5036219;28;20606;-63
2022/03/05 06:33:20;;;;;;;112.53;73.85;;;;;;;24.98;41.66;102717.44;5035711;28;20025;-64
2022/03/05 06:35:45;;;;;;;112.63;71.43;;;;;;;25.02;41.52;102713.31;5036036;28;20268;-62
2022/03/05 06:38:11;;;;;;;110.22;70.25;;;;;;;24.97;41.21;102715.72;5035633;28;20415;-63
2022/03/05 06:40:37;;;;;;;116.95;73.80;;;;;;;25.00;41.94;102719.00;5035317;28;20034;-64
2022/03/05 06:43:03;;;;;;;112.53;73.00;;;;;;;25.00;41.26;102723.66;5036271;28;20061;-62
2022/03/05 06:45:28;;;;;;;112.85;72.10;;;;;;;24.97;41.59;102712.94;5035430;28;20063;-63
2022/03/05 06:47:53;;;;;;;115.32;71.93;;;;;;;25.00;41.03;102718.13;5035604;28;20052;-63
2022/03/05 06:50:18;;;;;;;120.28;73.20;;;;;;;25.02;41.15;102707.81;5035269;28;20110;-63
2022/03/05 06:52:44;;;;;;;110.53;73.13;;;;;;;25.00;41.15;102715.41;5035828;28;20456;-64
2022/03/05 06:55:14;;;;;;;110.18;70.78;;;;;;;25.06;41.24;102718.34;5035402;28;20079;-63
2022/03/05 06:57:39;;;;;;;115.90;74.82;;;;;;;25.06;41.09;102722.97;5035435;28;20022;-63
2022/03/05 07:00:05;;;;;;;115.85;72.57;;;;;;;24.92;40.67;102720.88;5035325;28;20037;-63
2022/03/05 07:02:30;;;;;;;114.78;70.78;;;;;;;24.99;41.26;102724.66;5035188;28;20032;-63
2022/03/05 07:04:56;;;;;;;109.47;70.75;;;;;;;25.04;41.80;102730.56;5035123;28;20057;-64
2022/03/05 07:07:21;;;;;;;118.75;71.75;;;;;;;25.06;42.03;102722.97;5035046;28;20415;-63
2022/03/05 07:09:46;;;;;;;107.60;69.80;;;;;;;25.08;41.48;102727.28;5035245;28;20099;-63
2022/03/05 07:12:12;;;;;;;111.72;69.25;;;;;;;24.98;40.58;102721.03;5034795;28;20021;-62
2022/03/05 07:14:37;;;;;;;108.80;66.45;;;;;;;25.05;40.93;102726.78;5034994;28;20025;-63
2022/03/05 07:17:04;;;;;;;111.35;70.80;;;;;;;24.99;40.94;102721.91;5035103;28;20477;-63
2022/03/05 07:19:29;;;;;;;109.15;70.40;;;;;;;25.08;40.98;102726.41;5034658;28;20033;-63
2022/03/05 07:21:54;;;;;;;105.05;68.15;;;;;;;25.02;41.56;102721.59;5035075;28;20030;-63
2022/03/05 07:24:19;;;;;;;103.28;66.38;;;;;;;25.10;40.65;102719.72;5034755;28;20025;-63
2022/03/05 07:26:45;;;;;;;101.88;67.18;;;;;;;25.15;41.78;102710.94;5034859;28;20021;-62
2022/03/05 07:29:10;;;;;;;108.68;67.95;;;;;;;25.07;40.57;102710.94;5034705;28;20029;-63
2022/03/05 07:31:36;;;;;;;109.90;70.43;;;;;;;25.05;40.52;102715.75;5034704;28;20024;-63
2022/03/05 07:34:01;;;;;;;103.70;67.05;;;;;;;25.14;40.81;102715.56;5034805;28;20021;-63
2022/03/05 07:36:26;;;;;;;97.10;63.63;;;;;;;25.12;40.57;102716.78;5034469;28;20493;-63
2022/03/05 07:38:52;;;;;;;103.35;68.10;;;;;;;25.09;41.43;102711.63;5034704;28;20022;-62
2022/03/05 07:41:18;;;;;;;95.35;62.95;;;;;;;25.10;40.31;102694.06;5033952;28;20033;-63
2022/03/05 07:43:45;;;;;;;98.43;63.22;;;;;;;25.06;40.98;102687.22;5034446;28;20033;-63
2022/03/05 07:46:10;;;;;;;98.57;63.35;;;;;;;25.02;40.63;102694.06;5034369;28;20025;-62
2022/03/05 07:48:36;;;;;;;96.40;62.95;;;;;;;25.06;40.93;102674.31;5034426;28;20024;-63
2022/03/05 07:51:02;;;;;;;93.93;61.83;;;;;;;25.13;40.71;102677.22;5034497;28;20025;-63
2022/03/05 07:53:28;;;;;;;94.82;63.17;;;;;;;25.05;40.64;102679.97;5034247;28;20025;-63
2022/03/05 07:55:54;;;;;;;103.78;67.15;;;;;;;25.08;40.75;102674.13;5034704;28;20071;-63
2022/03/05 07:58:20;;;;;;;103.28;65.95;;;;;;;25.12;41.84;102678.25;5033994;28;20037;-63
2022/03/05 08:00:45;;;;;;;96.00;61.83;;;;;;;25.04;40.13;102681.88;5034301;28;20029;-64
2022/03/05 08:03:11;;;;;;;100.75;64.18;;;;;;;25.17;41.09;102675.81;5033056;28;20036;-63
2022/03/05 08:05:36;;;;;;;97.00;64.45;;;;;;;25.18;41.33;102677.56;5034174;28;20041;-63
2022/03/05 08:08:02;;;;;;;100.65;64.15;;;;;;;25.14;40.72;102670.69;5034148;28;20056;-63
2022/03/05 08:10:27;;;;;;;93.95;61.20;;;;;;;25.15;39.90;102670.50;5033613;28;20032;-63
2022/03/05 08:12:53;;;;;;;98.72;62.85;;;;;;;25.04;40.60;102675.53;5033806;28;20637;-64
2022/03/05 08:15:18;;;;;;;93.82;62.20;;;;;;;25.13;40.68;102675.31;5033652;28;20034;-63
2022/03/05 08:17:52;;;;;;;98.88;63.08;;;;;;;25.17;40.98;102665.69;5033961;28;20488;-63
2022/03/05 08:20:18;;;;;;;98.28;61.53;;;;;;;25.19;40.53;102668.25;5032311;28;20025;-63
2022/03/05 08:22:43;;;;;;;93.07;61.42;;;;;;;25.04;40.93;102664.50;5033826;28;20036;-64
2022/03/05 08:25:09;;;;;;;90.68;60.92;;;;;;;25.06;39.66;102656.94;5033760;28;20025;-63
2022/03/05 08:27:34;;;;;;;96.20;63.50;;;;;;;25.03;40.64;102654.53;5033653;28;20116;-62
2022/03/05 08:29:59;;;;;;;97.63;61.65;;;;;;;25.03;40.38;102662.78;5033768;28;20018;-64
2022/03/05 08:32:24;;;;;;;92.70;60.25;;;;;;;25.13;41.37;102657.94;5033396;28;20057;-62
2022/03/05 08:34:50;;;;;;;96.20;61.47;;;;;;;25.09;40.49;102651.09;5033936;28;20029;-63
2022/03/05 08:37:15;;;;;;;93.45;59.90;;;;;;;25.19;41.03;102641.63;5033225;28;20374;-62
2022/03/05 08:39:40;;;;;;;93.22;59.83;;;;;;;25.17;39.63;102640.06;5033082;28;20071;-64
2022/03/05 08:42:07;;;;;;;90.78;58.85;;;;;;;25.20;40.96;102631.47;5033232;28;20033;-63
2022/03/05 08:44:33;;;;;;;91.20;60.47;;;;;;;25.21;40.27;102635.94;5034279;28;20049;-62
2022/03/05 08:46:58;;;;;;;94.63;60.65;;;;;;;25.20;40.64;102625.97;5033812;28;20053;-63
2022/03/05 08:49:23;;;;;;;98.30;63.67;;;;;;;25.10;39.88;102620.63;5033125;28;20026;-63
2022/03/05 08:51:48;;;;;;;91.80;61.25;;;;;;;25.09;41.27;102618.91;5033325;28;20075;-63
2022/03/05 08:54:14;;;;;;;91.72;60.97;;;;;;;25.23;40.67;102620.09;5033017;28;20044;-63
2022/03/05 08:56:39;;;;;;;88.30;58.72;;;;;;;25.18;41.07;102622.50;5033193;28;20031;-63
2022/03/05 08:59:04;;;;;;;88.15;59.50;;;;;;;25.12;40.43;102624.06;5033120;28;20025;-63
2022/03/05 09:01:29;;;;;;;92.78;61.67;;;;;;;25.16;40.81;102621.81;5033467;28;20021;-64
2022/03/05 09:03:55;;;;;;;93.85;62.88;;;;;;;25.11;40.69;102616.00;5033166;28;20479;-63
2022/03/05 09:06:20;;;;;;;93.53;61.03;;;;;;;25.19;40.37;102619.59;5032643;28;20088;-64
2022/03/05 09:08:45;;;;;;;96.72;62.25;;;;;;;25.28;41.12;102606.66;5033048;28;20048;-63
2022/03/05 09:11:11;;;;;;;94.03;60.83;;;;;;;25.19;41.46;102607.69;5032493;28;20026;-63
2022/03/05 09:13:36;;;;;;;90.97;59.95;;;;;;;25.19;40.57;102607.69;5032864;28;20029;-63
2022/03/05 09:16:01;;;;;;;96.40;63.38;;;;;;;25.19;40.76;102610.44;5032840;28;20028;-63
2022/03/05 09:18:28;;;;;;;95.18;60.28;;;;;;;25.25;40.84;102601.53;5032604;28;20072;-64
2022/03/05 09:20:53;;;;;;;93.47;61.35;;;;;;;25.17;40.71;102609.78;5032814;28;20534;-63
2022/03/05 09:23:18;;;;;;;92.53;58.95;;;;;;;25.14;40.70;102599.13;5032507;28;20151;-64
2022/03/05 09:25:44;;;;;;;94.72;60.17;;;;;;;25.13;39.81;102609.28;5033316;28;20031;-62
2022/03/05 09:28:09;;;;;;;86.78;59.88;;;;;;;25.20;40.47;102603.94;5034067;28;20472;-63
2022/03/05 09:30:34;;;;;;;85.82;56.22;;;;;;;25.15;40.84;102601.69;5032887;28;20412;-63
2022/03/05 09:32:59;;;;;;;89.13;57.42;;;;;;;25.25;41.00;102590.50;5032639;28;20357;-63
2022/03/05 09:35:25;;;;;;;88.38;59.28;;;;;;;25.11;40.18;102593.97;5032479;28;20045;-64
2022/03/05 09:37:50;;;;;;;94.65;59.25;;;;;;;25.24;40.91;102593.44;5032549;28;20481;-63
2022/03/05 09:40:16;;;;;;;94.70;61.42;;;;;;;25.22;40.08;102585.34;5032073;28;20381;-64
2022/03/05 09:42:45;;;;;;;93.35;61.50;;;;;;;25.21;40.13;102583.66;5032892;28;20063;-63
2022/03/05 09:45:12;;;;;;;89.70;59.35;;;;;;;25.18;40.42;102589.47;5032369;28;20100;-62
2022/03/05 09:47:39;;;;;;;93.72;59.95;;;;;;;25.14;40.25;102582.59;5032399;28;20043;-64
2022/03/05 09:50:07;;;;;;;89.90;59.80;;;;;;;25.19;40.10;102582.94;5033258;28;20018;-63
2022/03/05 09:52:33;;;;;;;89.57;59.63;;;;;;;25.24;40.71;102577.78;5036522;28;20029;-63
2022/03/05 09:55:00;;;;;;;95.65;62.63;;;;;;;25.27;41.06;102582.94;5036824;28;20104;-63
2022/03/05 09:57:25;;;;;;;98.53;60.55;;;;;;;25.20;40.70;102581.94;5035073;28;20063;-64
2022/03/05 09:59:51;;;;;;;91.10;61.33;;;;;;;25.25;40.82;102578.63;5036692;28;20030;-64
2022/03/05 10:02:18;;;;;;;90.60;57.08;;;;;;;25.33;40.52;102576.72;5036251;28;20579;-63
2022/03/05 10:04:43;;;;;;;94.63;60.72;;;;;;;25.26;40.70;102575.72;5036309;28;20026;-64
2022/03/05 10:07:17;;;;;;;95.18;62.00;;;;;;;25.09;39.79;102574.03;5036153;28;20492;-63
2022/03/05 10:09:44;;;;;;;97.07;60.25;;;;;;;25.26;40.60;102564.69;5036104;28;20033;-63
2022/03/05 10:12:30;;;;;;;88.70;58.80;;;;;;;25.21;39.40;102572.63;5037728;28;20029;-61
2022/03/05 10:15:05;;;;;;;93.47;59.97;;;;;;;25.26;40.17;102563.84;5036797;28;20481;-64
2022/03/05 10:17:48;;;;;;;90.60;58.70;;;;;;;25.25;40.42;102562.97;5034769;28;20372;-63
2022/03/05 10:20:14;;;;;;;90.53;58.70;;;;;;;25.26;40.24;102559.19;5035793;28;20484;-64
2022/03/05 10:22:53;;;;;;;90.95;60.22;;;;;;;25.13;39.94;102553.38;5036223;28;20080;-63
2022/03/05 10:25:30;;;;;;;91.20;59.75;;;;;;;25.32;40.74;102563.97;5035730;28;20064;-63
2022/03/05 10:28:11;;;;;;;97.50;60.90;;;;;;;25.26;40.28;102553.69;5036049;28;20030;-64
2022/03/05 10:30:39;;;;;;;95.80;60.25;;;;;;;25.27;40.23;102547.13;5035948;28;20131;-63
2022/03/05 10:33:06;;;;;;;91.40;59.88;;;;;;;25.26;40.75;102547.31;5035896;28;20033;-63
2022/03/05 10:35:32;;;;;;;95.63;60.85;;;;;;;25.24;40.15;102539.25;5035723;28;20480;-64
2022/03/05 10:37:57;;;;;;;88.07;55.67;;;;;;;25.23;40.15;102542.19;5035804;28;20029;-63
2022/03/05 10:40:27;;;;;;;91.72;59.53;;;;;;;25.23;39.77;102543.03;5035285;28;20029;-63
2022/03/05 10:42:52;;;;;;;89.18;58.33;;;;;;;25.24;39.67;102536.50;5035715;28;20021;-64
2022/03/05 10:45:18;;;;;;;92.20;58.65;;;;;;;25.31;40.18;102540.25;5035463;28;20025;-63
2022/03/05 10:47:47;;;;;;;89.65;58.72;;;;;;;25.25;40.06;102548.34;5035683;28;20029;-64
2022/03/05 10:50:18;;;;;;;90.28;59.75;;;;;;;25.29;40.04;102541.47;5035391;28;20021;-63
2022/03/05 10:52:48;;;;;;;90.10;57.78;;;;;;;25.16;39.62;102544.75;5035662;28;20097;-64
2022/03/05 10:55:19;;;;;;;91.18;57.72;;;;;;;25.31;41.20;102539.38;5035302;28;20032;-63
2022/03/05 10:58:04;;;;;;;91.15;59.28;;;;;;;25.23;40.29;102532.03;5035521;28;20056;-64
2022/03/05 11:00:30;;;;;;;89.70;57.67;;;;;;;25.29;40.04;102530.44;5034787;28;20029;-63